sensor_id;sensor_type;location;lat;lon;timestamp;pressure;altitude;pressure_sealevel;temperature;humidity
9738;BME280;4908;47.446;13.900;2023-12-07T00:01:33;92757.84;;;-0.24;100.00
9738;BME280;4908;47.446;13.900;2023-12-07T00:04:01;92763.06;;;-0.15;100.00
9738;BME280;4908;47.446;13.900;2023-12-07T00:06:29;92766.78;;;-0.16;100.00
9738;BME280;4908;47.446;13.900;2023-12-07T00:08:56;92768.34;;;-0.15;100.00
9738;BME280;4908;47.446;13.900;2023-12-07T00:11:26;92773.19;;;-0.34;100.00
9738;BME280;4908;47.446;13.900;2023-12-07T00:13:53;92775.31;;;-0.19;100.00
9738;BME280;4908;47.446;13.900;2023-12-07T00:16:20;92766.34;;;-0.27;100.00
9738;BME280;4908;47.446;13.900;2023-12-07T00:18:47;92769.03;;;-0.35;100.00
9738;BME280;4908;47.446;13.900;2023-12-07T00:21:14;92773.78;;;-0.20;100.00
9738;BME280;4908;47.446;13.900;2023-12-07T00:23:42;92769.44;;;-0.16;100.00
9738;BME280;4908;47.446;13.900;2023-12-07T00:26:09;92773.31;;;-0.22;100.00
9738;BME280;4908;47.446;13.900;2023-12-07T00:28:36;92780.09;;;-0.21;100.00
9738;BME280;4908;47.446;13.900;2023-12-07T00:31:03;92789.50;;;-0.12;100.00
9738;BME280;4908;47.446;13.900;2023-12-07T00:33:30;92770.97;;;-0.15;100.00
9738;BME280;4908;47.446;13.900;2023-12-07T00:35:57;92786.28;;;-0.17;100.00
9738;BME280;4908;47.446;13.900;2023-12-07T00:38:24;92783.38;;;-0.16;100.00
9738;BME280;4908;47.446;13.900;2023-12-07T00:40:53;92789.38;;;-0.15;100.00
9738;BME280;4908;47.446;13.900;2023-12-07T00:43:20;92791.13;;;-0.36;100.00
9738;BME280;4908;47.446;13.900;2023-12-07T00:45:47;92793.91;;;-0.33;100.00
9738;BME280;4908;47.446;13.900;2023-12-07T00:48:14;92787.53;;;-0.23;100.00
9738;BME280;4908;47.446;13.900;2023-12-07T00:50:41;92786.94;;;-0.20;100.00
9738;BME280;4908;47.446;13.900;2023-12-07T00:53:08;92786.63;;;-0.27;100.00
9738;BME280;4908;47.446;13.900;2023-12-07T00:55:35;92777.19;;;-0.20;100.00
9738;BME280;4908;47.446;13.900;2023-12-07T00:58:03;92775.31;;;-0.19;100.00
9738;BME280;4908;47.446;13.900;2023-12-07T01:00:31;92781.81;;;-0.25;100.00
9738;BME280;4908;47.446;13.900;2023-12-07T01:02:58;92784.69;;;-0.01;100.00
9738;BME280;4908;47.446;13.900;2023-12-07T01:05:25;92790.06;;;-0.35;100.00
9738;BME280;4908;47.446;13.900;2023-12-07T01:07:52;92783.56;;;-0.46;100.00
9738;BME280;4908;47.446;13.900;2023-12-07T01:10:19;92780.47;;;-0.31;100.00
9738;BME280;4908;47.446;13.900;2023-12-07T01:12:46;92778.31;;;-0.46;100.00
9738;BME280;4908;47.446;13.900;2023-12-07T01:15:14;92784.81;;;-0.35;100.00
9738;BME280;4908;47.446;13.900;2023-12-07T01:17:42;92793.16;;;-0.42;100.00
9738;BME280;4908;47.446;13.900;2023-12-07T01:20:09;92782.50;;;-0.45;100.00
9738;BME280;4908;47.446;13.900;2023-12-07T01:22:39;92791.75;;;-0.31;100.00
9738;BME280;4908;47.446;13.900;2023-12-07T01:25:07;92790.34;;;-0.28;100.00
9738;BME280;4908;47.446;13.900;2023-12-07T01:27:34;92791.88;;;-0.27;100.00
9738;BME280;4908;47.446;13.900;2023-12-07T01:30:01;92786.63;;;-0.27;100.00
9738;BME280;4908;47.446;13.900;2023-12-07T01:32:30;92794.69;;;-0.32;100.00
9738;BME280;4908;47.446;13.900;2023-12-07T01:34:57;92795.50;;;-0.49;100.00
9738;BME280;4908;47.446;13.900;2023-12-07T01:37:24;92795.94;;;-0.38;100.00
9738;BME280;4908;47.446;13.900;2023-12-07T01:39:53;92801.06;;;-0.42;100.00
9738;BME280;4908;47.446;13.900;2023-12-07T01:42:20;92797.59;;;-0.17;100.00
9738;BME280;4908;47.446;13.900;2023-12-07T01:44:47;92805.84;;;-0.35;100.00
9738;BME280;4908;47.446;13.900;2023-12-07T01:47:14;92806.00;;;-0.32;100.00
9738;BME280;4908;47.446;13.900;2023-12-07T01:49:43;92808.94;;;-0.33;100.00
9738;BME280;4908;47.446;13.900;2023-12-07T01:52:10;92812.78;;;-0.31;100.00
9738;BME280;4908;47.446;13.900;2023-12-07T01:54:38;92809.22;;;-0.26;100.00
9738;BME280;4908;47.446;13.900;2023-12-07T01:57:05;92812.69;;;-0.51;100.00
9738;BME280;4908;47.446;13.900;2023-12-07T01:59:33;92808.34;;;-0.56;100.00
9738;BME280;4908;47.446;13.900;2023-12-07T02:02:00;92821.16;;;-0.46;100.00
9738;BME280;4908;47.446;13.900;2023-12-07T02:04:27;92815.44;;;-0.39;100.00
9738;BME280;4908;47.446;13.900;2023-12-07T02:06:57;92812.66;;;-0.34;100.00
9738;BME280;4908;47.446;13.900;2023-12-07T02:09:26;92816.19;;;-0.30;100.00
9738;BME280;4908;47.446;13.900;2023-12-07T02:11:53;92817.25;;;-0.14;100.00
9738;BME280;4908;47.446;13.900;2023-12-07T02:14:21;92825.28;;;-0.02;100.00
9738;BME280;4908;47.446;13.900;2023-12-07T02:16:51;92822.78;;;-0.07;100.00
9738;BME280;4908;47.446;13.900;2023-12-07T02:19:39;92817.84;;;-0.17;100.00
9738;BME280;4908;47.446;13.900;2023-12-07T02:22:17;92816.03;;;-0.25;100.00
9738;BME280;4908;47.446;13.900;2023-12-07T02:24:54;92812.34;;;-0.41;100.00
9738;BME280;4908;47.446;13.900;2023-12-07T02:27:35;92819.78;;;-0.43;100.00
9738;BME280;4908;47.446;13.900;2023-12-07T02:30:02;92815.78;;;-0.49;100.00
9738;BME280;4908;47.446;13.900;2023-12-07T02:32:30;92821.63;;;-0.44;100.00
9738;BME280;4908;47.446;13.900;2023-12-07T02:34:57;92823.81;;;-0.37;100.00
9738;BME280;4908;47.446;13.900;2023-12-07T02:37:28;92823.66;;;-0.58;100.00
9738;BME280;4908;47.446;13.900;2023-12-07T02:39:56;92823.03;;;-0.55;100.00
9738;BME280;4908;47.446;13.900;2023-12-07T02:42:25;92824.59;;;-0.45;100.00
9738;BME280;4908;47.446;13.900;2023-12-07T02:44:54;92825.19;;;-0.40;100.00
9738;BME280;4908;47.446;13.900;2023-12-07T02:47:22;92833.06;;;-0.48;100.00
9738;BME280;4908;47.446;13.900;2023-12-07T02:49:49;92836.94;;;-0.46;100.00
9738;BME280;4908;47.446;13.900;2023-12-07T02:52:15;92833.41;;;-0.41;100.00
9738;BME280;4908;47.446;13.900;2023-12-07T02:54:42;92840.16;;;-0.23;100.00
9738;BME280;4908;47.446;13.900;2023-12-07T02:57:09;92839.41;;;-0.32;100.00
9738;BME280;4908;47.446;13.900;2023-12-07T02:59:36;92838.94;;;-0.34;100.00
9738;BME280;4908;47.446;13.900;2023-12-07T03:02:05;92843.91;;;-0.50;100.00
9738;BME280;4908;47.446;13.900;2023-12-07T03:04:32;92844.53;;;-0.44;100.00
9738;BME280;4908;47.446;13.900;2023-12-07T03:06:59;92853.34;;;-0.40;100.00
9738;BME280;4908;47.446;13.900;2023-12-07T03:09:26;92844.53;;;-0.36;100.00
9738;BME280;4908;47.446;13.900;2023-12-07T03:11:53;92847.63;;;-0.42;100.00
9738;BME280;4908;47.446;13.900;2023-12-07T03:14:20;92852.72;;;-0.46;100.00
9738;BME280;4908;47.446;13.900;2023-12-07T03:16:47;92851.63;;;-0.36;100.00
9738;BME280;4908;47.446;13.900;2023-12-07T03:19:16;92851.03;;;-0.33;100.00
9738;BME280;4908;47.446;13.900;2023-12-07T03:21:43;92855.81;;;-0.35;100.00
9738;BME280;4908;47.446;13.900;2023-12-07T03:24:10;92855.19;;;-0.24;100.00
9738;BME280;4908;47.446;13.900;2023-12-07T03:26:37;92855.00;;;-0.27;100.00
9738;BME280;4908;47.446;13.900;2023-12-07T03:29:04;92866.81;;;-0.33;100.00
9738;BME280;4908;47.446;13.900;2023-12-07T03:31:31;92857.03;;;-0.33;100.00
9738;BME280;4908;47.446;13.900;2023-12-07T03:33:58;92864.03;;;-0.45;100.00
9738;BME280;4908;47.446;13.900;2023-12-07T03:36:28;92872.06;;;-0.42;100.00
9738;BME280;4908;47.446;13.900;2023-12-07T03:38:55;92873.78;;;-0.37;100.00
9738;BME280;4908;47.446;13.900;2023-12-07T03:41:22;92865.25;;;-0.34;100.00
9738;BME280;4908;47.446;13.900;2023-12-07T03:43:49;92872.69;;;-0.36;100.00
9738;BME280;4908;47.446;13.900;2023-12-07T03:46:16;92875.16;;;-0.48;100.00
9738;BME280;4908;47.446;13.900;2023-12-07T03:48:43;92877.31;;;-0.42;100.00
9738;BME280;4908;47.446;13.900;2023-12-07T03:51:13;92876.38;;;-0.54;100.00
9738;BME280;4908;47.446;13.900;2023-12-07T03:53:43;92875.91;;;-0.56;100.00
9738;BME280;4908;47.446;13.900;2023-12-07T03:56:10;92870.53;;;-0.51;100.00
9738;BME280;4908;47.446;13.900;2023-12-07T03:58:38;92885.38;;;-0.47;100.00
9738;BME280;4908;47.446;13.900;2023-12-07T04:01:05;92874.56;;;-0.45;100.00
9738;BME280;4908;47.446;13.900;2023-12-07T04:03:32;92880.75;;;-0.58;100.00
9738;BME280;4908;47.446;13.900;2023-12-07T04:06:00;92881.50;;;-0.49;100.00
9738;BME280;4908;47.446;13.900;2023-12-07T04:08:27;92883.69;;;-0.51;100.00
9738;BME280;4908;47.446;13.900;2023-12-07T04:10:56;92885.53;;;-0.52;100.00
9738;BME280;4908;47.446;13.900;2023-12-07T04:13:23;92902.53;;;-0.49;100.00
9738;BME280;4908;47.446;13.900;2023-12-07T04:15:50;92902.88;;;-0.51;100.00
9738;BME280;4908;47.446;13.900;2023-12-07T04:18:17;92900.06;;;-0.63;100.00
9738;BME280;4908;47.446;13.900;2023-12-07T04:20:44;92903.75;;;-0.89;100.00
9738;BME280;4908;47.446;13.900;2023-12-07T04:23:11;92908.50;;;-1.00;100.00
9738;BME280;4908;47.446;13.900;2023-12-07T04:25:38;92911.94;;;-0.82;100.00
9738;BME280;4908;47.446;13.900;2023-12-07T04:28:07;92913.03;;;-0.75;100.00
9738;BME280;4908;47.446;13.900;2023-12-07T04:30:34;92914.47;;;-0.60;100.00
9738;BME280;4908;47.446;13.900;2023-12-07T04:33:01;92908.72;;;-0.71;100.00
9738;BME280;4908;47.446;13.900;2023-12-07T04:35:28;92913.06;;;-0.66;100.00
9738;BME280;4908;47.446;13.900;2023-12-07T04:37:55;92922.34;;;-0.60;100.00
9738;BME280;4908;47.446;13.900;2023-12-07T04:40:22;92934.88;;;-0.57;100.00
9738;BME280;4908;47.446;13.900;2023-12-07T04:42:49;92934.09;;;-0.66;100.00
9738;BME280;4908;47.446;13.900;2023-12-07T04:45:18;92935.16;;;-0.67;100.00
9738;BME280;4908;47.446;13.900;2023-12-07T04:47:45;92937.78;;;-0.67;100.00
9738;BME280;4908;47.446;13.900;2023-12-07T04:50:13;92934.56;;;-0.64;100.00
9738;BME280;4908;47.446;13.900;2023-12-07T04:52:40;92943.69;;;-0.53;100.00
9738;BME280;4908;47.446;13.900;2023-12-07T04:55:07;92936.41;;;-0.56;100.00
9738;BME280;4908;47.446;13.900;2023-12-07T04:57:34;92942.28;;;-0.59;100.00
9738;BME280;4908;47.446;13.900;2023-12-07T05:00:02;92946.28;;;-0.87;100.00
9738;BME280;4908;47.446;13.900;2023-12-07T05:02:33;92942.25;;;-0.76;100.00
9738;BME280;4908;47.446;13.900;2023-12-07T05:05:00;92943.22;;;-0.72;100.00
9738;BME280;4908;47.446;13.900;2023-12-07T05:07:27;92951.56;;;-0.70;100.00
9738;BME280;4908;47.446;13.900;2023-12-07T05:09:54;92952.16;;;-0.73;100.00
9738;BME280;4908;47.446;13.900;2023-12-07T05:12:21;92955.41;;;-0.76;100.00
9738;BME280;4908;47.446;13.900;2023-12-07T05:14:48;92958.69;;;-0.62;100.00
9738;BME280;4908;47.446;13.900;2023-12-07T05:17:15;92950.00;;;-0.71;100.00
9738;BME280;4908;47.446;13.900;2023-12-07T05:19:45;92950.63;;;-0.74;100.00
9738;BME280;4908;47.446;13.900;2023-12-07T05:22:14;92951.06;;;-0.89;100.00
9738;BME280;4908;47.446;13.900;2023-12-07T05:24:41;92951.53;;;-0.87;100.00
9738;BME280;4908;47.446;13.900;2023-12-07T05:27:08;92954.44;;;-0.98;100.00
9738;BME280;4908;47.446;13.900;2023-12-07T05:29:35;92948.44;;;-0.89;100.00
9738;BME280;4908;47.446;13.900;2023-12-07T05:32:02;92957.06;;;-0.98;100.00
9738;BME280;4908;47.446;13.900;2023-12-07T05:34:30;92955.59;;;-1.21;100.00
9738;BME280;4908;47.446;13.900;2023-12-07T05:36:58;92960.09;;;-1.13;100.00
9738;BME280;4908;47.446;13.900;2023-12-07T05:39:25;92961.59;;;-1.20;100.00
9738;BME280;4908;47.446;13.900;2023-12-07T05:41:52;92957.34;;;-1.08;100.00
9738;BME280;4908;47.446;13.900;2023-12-07T05:44:19;92963.19;;;-1.11;100.00
9738;BME280;4908;47.446;13.900;2023-12-07T05:46:48;92974.16;;;-1.09;100.00
9738;BME280;4908;47.446;13.900;2023-12-07T05:49:15;92975.59;;;-1.03;100.00
9738;BME280;4908;47.446;13.900;2023-12-07T05:51:42;92981.94;;;-1.04;100.00
9738;BME280;4908;47.446;13.900;2023-12-07T05:54:10;92976.06;;;-1.01;100.00
9738;BME280;4908;47.446;13.900;2023-12-07T05:56:37;92982.56;;;-0.98;100.00
9738;BME280;4908;47.446;13.900;2023-12-07T05:59:04;92986.72;;;-1.06;100.00
9738;BME280;4908;47.446;13.900;2023-12-07T06:01:31;92987.59;;;-1.19;100.00
9738;BME280;4908;47.446;13.900;2023-12-07T06:03:59;92996.13;;;-1.13;100.00
9738;BME280;4908;47.446;13.900;2023-12-07T06:06:26;92986.72;;;-1.06;100.00
9738;BME280;4908;47.446;13.900;2023-12-07T06:08:53;92991.41;;;-0.85;100.00
9738;BME280;4908;47.446;13.900;2023-12-07T06:11:21;92996.66;;;-0.85;100.00
9738;BME280;4908;47.446;13.900;2023-12-07T06:13:48;92992.97;;;-0.84;100.00
9738;BME280;4908;47.446;13.900;2023-12-07T06:16:15;93001.31;;;-0.82;100.00
9738;BME280;4908;47.446;13.900;2023-12-07T06:18:44;93007.78;;;-0.88;100.00
9738;BME280;4908;47.446;13.900;2023-12-07T06:21:13;93015.16;;;-0.51;100.00
9738;BME280;4908;47.446;13.900;2023-12-07T06:23:40;93020.25;;;-0.46;100.00
9738;BME280;4908;47.446;13.900;2023-12-07T06:26:07;93014.50;;;-0.65;100.00
9738;BME280;4908;47.446;13.900;2023-12-07T06:28:35;93010.31;;;-0.75;100.00
9738;BME280;4908;47.446;13.900;2023-12-07T06:31:06;93015.88;;;-0.76;100.00
9738;BME280;4908;47.446;13.900;2023-12-07T06:33:34;93017.09;;;-0.82;100.00
9738;BME280;4908;47.446;13.900;2023-12-07T06:36:01;93016.16;;;-0.86;100.00
9738;BME280;4908;47.446;13.900;2023-12-07T06:38:29;93021.41;;;-0.86;100.00
9738;BME280;4908;47.446;13.900;2023-12-07T06:40:56;93015.56;;;-0.75;100.00
9738;BME280;4908;47.446;13.900;2023-12-07T06:43:24;93031.06;;;-1.04;100.00
9738;BME280;4908;47.446;13.900;2023-12-07T06:45:52;93030.16;;;-1.00;100.00
9738;BME280;4908;47.446;13.900;2023-12-07T06:48:20;93039.59;;;-0.99;100.00
9738;BME280;4908;47.446;13.900;2023-12-07T06:50:47;93033.75;;;-0.96;100.00
9738;BME280;4908;47.446;13.900;2023-12-07T06:53:14;93033.91;;;-0.92;100.00
9738;BME280;4908;47.446;13.900;2023-12-07T06:55:43;93046.47;;;-0.80;100.00
9738;BME280;4908;47.446;13.900;2023-12-07T06:58:11;93041.06;;;-0.84;100.00
9738;BME280;4908;47.446;13.900;2023-12-07T07:00:38;93051.25;;;-0.82;100.00
9738;BME280;4908;47.446;13.900;2023-12-07T07:03:06;93055.00;;;-0.75;100.00
9738;BME280;4908;47.446;13.900;2023-12-07T07:05:33;93057.63;;;-0.75;100.00
9738;BME280;4908;47.446;13.900;2023-12-07T07:08:00;93067.06;;;-0.74;100.00
9738;BME280;4908;47.446;13.900;2023-12-07T07:10:27;93068.50;;;-0.59;100.00
9738;BME280;4908;47.446;13.900;2023-12-07T07:12:54;93072.59;;;-0.36;100.00
9738;BME280;4908;47.446;13.900;2023-12-07T07:15:21;93072.53;;;-0.53;100.00
9738;BME280;4908;47.446;13.900;2023-12-07T07:17:49;93070.34;;;-0.68;100.00
9738;BME280;4908;47.446;13.900;2023-12-07T07:20:18;93074.44;;;-0.45;100.00
9738;BME280;4908;47.446;13.900;2023-12-07T07:22:46;93067.59;;;-0.46;100.00
9738;BME280;4908;47.446;13.900;2023-12-07T07:25:13;93073.44;;;-0.66;100.00
9738;BME280;4908;47.446;13.900;2023-12-07T07:27:41;93072.03;;;-0.64;100.00
9738;BME280;4908;47.446;13.900;2023-12-07T07:30:09;93062.91;;;-0.66;100.00
9738;BME280;4908;47.446;13.900;2023-12-07T07:32:36;93068.22;;;-0.49;100.00
9738;BME280;4908;47.446;13.900;2023-12-07T07:35:04;93067.28;;;-0.53;100.00
9738;BME280;4908;47.446;13.900;2023-12-07T07:37:33;93072.53;;;-0.53;100.00
9738;BME280;4908;47.446;13.900;2023-12-07T07:40:00;93067.56;;;-0.63;100.00
9738;BME280;4908;47.446;13.900;2023-12-07T07:42:32;93072.16;;;-0.30;100.00
9738;BME280;4908;47.446;13.900;2023-12-07T07:44:59;93077.00;;;-0.06;100.00
9738;BME280;4908;47.446;13.900;2023-12-07T07:47:26;93071.88;;;-0.11;100.00
9738;BME280;4908;47.446;13.900;2023-12-07T07:49:53;93078.00;;;-0.41;100.00
9738;BME280;4908;47.446;13.900;2023-12-07T07:52:20;93077.94;;;-0.58;100.00
9738;BME280;4908;47.446;13.900;2023-12-07T07:54:48;93079.81;;;-0.50;100.00
9738;BME280;4908;47.446;13.900;2023-12-07T07:57:15;93077.66;;;-0.48;100.00
9738;BME280;4908;47.446;13.900;2023-12-07T07:59:43;93079.41;;;-0.35;100.00
9738;BME280;4908;47.446;13.900;2023-12-07T08:02:10;93068.88;;;-0.35;100.00
9738;BME280;4908;47.446;13.900;2023-12-07T08:04:37;93064.09;;;-0.25;100.00
9738;BME280;4908;47.446;13.900;2023-12-07T08:07:04;93071.09;;;-0.20;100.00
9738;BME280;4908;47.446;13.900;2023-12-07T08:09:33;93073.25;;;-0.05;100.00
9738;BME280;4908;47.446;13.900;2023-12-07T08:12:02;93079.16;;;-0.08;100.00
9738;BME280;4908;47.446;13.900;2023-12-07T08:14:29;93064.31;;;-0.04;100.00
9738;BME280;4908;47.446;13.900;2023-12-07T08:16:56;93068.00;;;-0.05;100.00
9738;BME280;4908;47.446;13.900;2023-12-07T08:19:23;93072.66;;;-0.02;100.00
9738;BME280;4908;47.446;13.900;2023-12-07T08:21:50;93072.66;;;-0.02;100.00
9738;BME280;4908;47.446;13.900;2023-12-07T08:24:17;93077.88;;;-0.19;100.00
9738;BME280;4908;47.446;13.900;2023-12-07T08:26:44;93069.38;;;-0.08;100.00
9738;BME280;4908;47.446;13.900;2023-12-07T08:29:13;93073.56;;;-0.15;100.00
9738;BME280;4908;47.446;13.900;2023-12-07T08:31:40;93072.97;;;0.05;100.00
9738;BME280;4908;47.446;13.900;2023-12-07T08:34:07;93077.75;;;-0.06;100.00
9738;BME280;4908;47.446;13.900;2023-12-07T08:36:34;93079.44;;;-0.10;100.00
9738;BME280;4908;47.446;13.900;2023-12-07T08:39:01;93081.78;;;-0.08;100.00
9738;BME280;4908;47.446;13.900;2023-12-07T08:41:28;93077.31;;;0.01;100.00
9738;BME280;4908;47.446;13.900;2023-12-07T08:43:55;93078.81;;;-0.15;100.00
9738;BME280;4908;47.446;13.900;2023-12-07T08:46:23;93082.97;;;-0.31;100.00
9738;BME280;4908;47.446;13.900;2023-12-07T08:48:50;93085.38;;;-0.52;100.00
9738;BME280;4908;47.446;13.900;2023-12-07T08:51:19;93084.91;;;-0.62;100.00
9738;BME280;4908;47.446;13.900;2023-12-07T08:53:46;93092.97;;;-0.50;100.00
9738;BME280;4908;47.446;13.900;2023-12-07T08:56:13;93094.38;;;-0.44;100.00
9738;BME280;4908;47.446;13.900;2023-12-07T08:58:40;93092.38;;;-0.39;100.00
9738;BME280;4908;47.446;13.900;2023-12-07T09:01:07;93090.25;;;-0.28;100.00
9738;BME280;4908;47.446;13.900;2023-12-07T09:03:36;93088.41;;;-0.28;100.00
9738;BME280;4908;47.446;13.900;2023-12-07T09:06:03;93085.03;;;-0.11;100.00
9738;BME280;4908;47.446;13.900;2023-12-07T09:08:31;93086.09;;;-0.21;100.00
9738;BME280;4908;47.446;13.900;2023-12-07T09:10:58;93084.69;;;-0.35;100.00
9738;BME280;4908;47.446;13.900;2023-12-07T09:13:26;93085.84;;;-0.50;100.00
9738;BME280;4908;47.446;13.900;2023-12-07T09:15:53;93093.59;;;-0.53;100.00
9738;BME280;4908;47.446;13.900;2023-12-07T09:18:20;93089.91;;;-0.83;100.00
9738;BME280;4908;47.446;13.900;2023-12-07T09:20:49;93091.88;;;-0.88;100.00
9738;BME280;4908;47.446;13.900;2023-12-07T09:23:16;93091.66;;;-0.70;100.00
9738;BME280;4908;47.446;13.900;2023-12-07T09:25:43;93088.75;;;-0.68;100.00
9738;BME280;4908;47.446;13.900;2023-12-07T09:28:10;93088.25;;;-0.70;100.00
9738;BME280;4908;47.446;13.900;2023-12-07T09:30:38;93094.38;;;-1.14;100.00
9738;BME280;4908;47.446;13.900;2023-12-07T09:33:05;93095.72;;;-0.95;100.00
9738;BME280;4908;47.446;13.900;2023-12-07T09:35:32;93090.69;;;-0.82;100.00
9738;BME280;4908;47.446;13.900;2023-12-07T09:38:01;93090.91;;;-0.62;100.00
9738;BME280;4908;47.446;13.900;2023-12-07T09:40:29;93086.63;;;-0.49;100.00
9738;BME280;4908;47.446;13.900;2023-12-07T09:42:56;93077.81;;;-0.53;100.00
9738;BME280;4908;47.446;13.900;2023-12-07T09:45:23;93084.28;;;-0.59;100.00
9738;BME280;4908;47.446;13.900;2023-12-07T09:47:51;93078.41;;;-0.56;100.00
9738;BME280;4908;47.446;13.900;2023-12-07T09:50:20;93081.38;;;-0.49;100.00
9738;BME280;4908;47.446;13.900;2023-12-07T09:52:48;93075.66;;;-0.51;100.00
9738;BME280;4908;47.446;13.900;2023-12-07T09:55:18;93070.97;;;-0.54;100.00
9738;BME280;4908;47.446;13.900;2023-12-07T09:57:46;93065.78;;;-0.37;100.00
9738;BME280;4908;47.446;13.900;2023-12-07T10:00:13;93075.59;;;-0.68;100.00
9738;BME280;4908;47.446;13.900;2023-12-07T10:02:41;93062.31;;;-0.63;100.00
9738;BME280;4908;47.446;13.900;2023-12-07T10:05:10;93066.19;;;-0.52;100.00
9738;BME280;4908;47.446;13.900;2023-12-07T10:07:40;93056.81;;;-0.36;100.00
9738;BME280;4908;47.446;13.900;2023-12-07T10:10:08;93056.53;;;-0.26;100.00
9738;BME280;4908;47.446;13.900;2023-12-07T10:12:44;93058.25;;;-0.05;100.00
9738;BME280;4908;47.446;13.900;2023-12-07T10:15:14;93058.56;;;0.03;100.00
9738;BME280;4908;47.446;13.900;2023-12-07T10:17:46;93062.44;;;0.05;100.00
9738;BME280;4908;47.446;13.900;2023-12-07T10:20:15;93063.66;;;-0.18;100.00
9738;BME280;4908;47.446;13.900;2023-12-07T10:22:43;93060.88;;;0.04;100.00
9738;BME280;4908;47.446;13.900;2023-12-07T10:25:10;93058.28;;;0.21;100.00
9738;BME280;4908;47.446;13.900;2023-12-07T10:27:40;93057.94;;;0.31;100.00
9738;BME280;4908;47.446;13.900;2023-12-07T10:30:10;93055.47;;;0.43;100.00
9738;BME280;4908;47.446;13.900;2023-12-07T10:32:38;93054.69;;;0.51;100.00
9738;BME280;4908;47.446;13.900;2023-12-07T10:35:08;93046.47;;;0.61;100.00
9738;BME280;4908;47.446;13.900;2023-12-07T10:37:36;93043.84;;;0.36;100.00
9738;BME280;4908;47.446;13.900;2023-12-07T10:40:05;93042.31;;;0.52;100.00
9738;BME280;4908;47.446;13.900;2023-12-07T10:42:34;93044.44;;;0.58;100.00
9738;BME280;4908;47.446;13.900;2023-12-07T10:45:06;93041.47;;;0.77;100.00
9738;BME280;4908;47.446;13.900;2023-12-07T10:47:38;93049.72;;;0.75;100.00
9738;BME280;4908;47.446;13.900;2023-12-07T10:50:06;93046.00;;;0.68;100.00
9738;BME280;4908;47.446;13.900;2023-12-07T10:52:39;93035.28;;;1.19;100.00
9738;BME280;4908;47.446;13.900;2023-12-07T10:55:14;93044.13;;;0.68;100.00
9738;BME280;4908;47.446;13.900;2023-12-07T10:57:43;93040.91;;;0.46;100.00
9738;BME280;4908;47.446;13.900;2023-12-07T11:00:14;93033.63;;;0.51;100.00
9738;BME280;4908;47.446;13.900;2023-12-07T11:02:42;93031.00;;;0.34;100.00
9738;BME280;4908;47.446;13.900;2023-12-07T11:05:11;93034.69;;;0.67;100.00
9738;BME280;4908;47.446;13.900;2023-12-07T11:07:51;93029.53;;;1.26;100.00
9738;BME280;4908;47.446;13.900;2023-12-07T11:10:24;93033.94;;;1.51;100.00
9738;BME280;4908;47.446;13.900;2023-12-07T11:13:00;93027.81;;;1.88;100.00
9738;BME280;4908;47.446;13.900;2023-12-07T11:15:29;93034.00;;;2.13;100.00
9738;BME280;4908;47.446;13.900;2023-12-07T11:17:56;93027.03;;;2.08;100.00
9738;BME280;4908;47.446;13.900;2023-12-07T11:20:34;93022.25;;;1.81;100.00
9738;BME280;4908;47.446;13.900;2023-12-07T11:23:07;93029.09;;;1.82;100.00
9738;BME280;4908;47.446;13.900;2023-12-07T11:25:34;93031.34;;;2.33;100.00
9738;BME280;4908;47.446;13.900;2023-12-07T11:28:01;93022.47;;;2.70;100.00
9738;BME280;4908;47.446;13.900;2023-12-07T11:30:32;93022.38;;;3.24;100.00
9738;BME280;4908;47.446;13.900;2023-12-07T11:33:00;93031.78;;;3.70;100.00
9738;BME280;4908;47.446;13.900;2023-12-07T11:35:27;93017.97;;;3.88;100.00
9738;BME280;4908;47.446;13.900;2023-12-07T11:38:05;93017.88;;;4.36;100.00
9738;BME280;4908;47.446;13.900;2023-12-07T11:40:35;93008.53;;;4.82;100.00
9738;BME280;4908;47.446;13.900;2023-12-07T11:43:02;93011.94;;;4.83;100.00
9738;BME280;4908;47.446;13.900;2023-12-07T11:45:41;93012.22;;;4.78;100.00
9738;BME280;4908;47.446;13.900;2023-12-07T11:48:10;93004.47;;;5.16;100.00
9738;BME280;4908;47.446;13.900;2023-12-07T11:50:56;93006.97;;;5.56;100.00
9738;BME280;4908;47.446;13.900;2023-12-07T11:53:25;93011.66;;;5.93;100.00
9738;BME280;4908;47.446;13.900;2023-12-07T11:55:52;93009.09;;;6.89;84.13
9738;BME280;4908;47.446;13.900;2023-12-07T11:58:19;93010.16;;;6.84;79.16
9738;BME280;4908;47.446;13.900;2023-12-07T12:00:50;93004.22;;;6.72;92.07
9738;BME280;4908;47.446;13.900;2023-12-07T12:03:18;93004.47;;;6.28;89.26
9738;BME280;4908;47.446;13.900;2023-12-07T12:05:45;92997.63;;;5.62;82.12
9738;BME280;4908;47.446;13.900;2023-12-07T12:08:13;92992.69;;;4.70;99.38
9738;BME280;4908;47.446;13.900;2023-12-07T12:10:40;92997.44;;;4.65;100.00
9738;BME280;4908;47.446;13.900;2023-12-07T12:13:09;93003.25;;;4.54;100.00
9738;BME280;4908;47.446;13.900;2023-12-07T12:15:37;92997.72;;;5.65;100.00
9738;BME280;4908;47.446;13.900;2023-12-07T12:18:06;92990.28;;;7.20;83.89
9738;BME280;4908;47.446;13.900;2023-12-07T12:20:34;92990.34;;;7.95;69.90
9738;BME280;4908;47.446;13.900;2023-12-07T12:23:01;92987.72;;;8.51;76.61
9738;BME280;4908;47.446;13.900;2023-12-07T12:25:29;92994.88;;;10.44;56.95
9738;BME280;4908;47.446;13.900;2023-12-07T12:27:58;92991.09;;;12.09;45.94
9738;BME280;4908;47.446;13.900;2023-12-07T12:30:27;92986.19;;;13.25;43.99
9738;BME280;4908;47.446;13.900;2023-12-07T12:32:55;92999.00;;;14.24;38.61
9738;BME280;4908;47.446;13.900;2023-12-07T12:35:24;92989.28;;;13.86;39.88
9738;BME280;4908;47.446;13.900;2023-12-07T12:37:51;92980.91;;;13.77;38.75
9738;BME280;4908;47.446;13.900;2023-12-07T12:40:22;92975.06;;;14.36;38.22
9738;BME280;4908;47.446;13.900;2023-12-07T12:42:50;92976.88;;;14.84;37.78
9738;BME280;4908;47.446;13.900;2023-12-07T12:45:18;92973.28;;;15.84;37.16
9738;BME280;4908;47.446;13.900;2023-12-07T12:47:47;92977.50;;;17.01;32.54
9738;BME280;4908;47.446;13.900;2023-12-07T12:50:33;92978.97;;;16.40;34.33
9738;BME280;4908;47.446;13.900;2023-12-07T12:53:03;92972.13;;;15.59;33.63
9738;BME280;4908;47.446;13.900;2023-12-07T12:55:31;92972.84;;;14.28;37.14
9738;BME280;4908;47.446;13.900;2023-12-07T12:57:59;92968.91;;;15.94;35.34
9738;BME280;4908;47.446;13.900;2023-12-07T13:00:26;92967.25;;;16.46;33.63
9738;BME280;4908;47.446;13.900;2023-12-07T13:02:53;92961.09;;;16.23;34.00
9738;BME280;4908;47.446;13.900;2023-12-07T13:05:20;92958.25;;;16.56;33.83
9738;BME280;4908;47.446;13.900;2023-12-07T13:07:50;92950.28;;;17.08;32.38